Time;durP1;ratioP1;P1;durP2;ratioP2;P2;SDS_P1;SDS_P2;PMS_P1;PMS_P2;Temp;Humidity;BMP_temperature;BMP_pressure;BME280_temperature;BME280_humidity;BME280_pressure;Samples;Min_cycle;Max_cycle;Signal;HPM_P1;HPM_P2
2023/01/22 00:01:08;;;;;;;19.17;7.63;;;3.40;99.90;;;;;;5117806;28;20421;-72
2023/01/22 00:03:35;;;;;;;16.45;7.68;;;3.50;99.90;;;;;;5117813;28;20100;-72
2023/01/22 00:06:01;;;;;;;16.88;8.10;;;3.50;99.90;;;;;;5117506;28;20032;-72
2023/01/22 00:08:27;;;;;;;17.88;8.60;;;3.30;99.90;;;;;;5117248;28;20043;-72
2023/01/22 00:10:54;;;;;;;16.45;8.88;;;3.20;99.90;;;;;;5117206;27;20122;-73
2023/01/22 00:13:21;;;;;;;17.25;7.47;;;3.20;99.90;;;;;;5117210;28;20504;-72
2023/01/22 00:15:47;;;;;;;20.08;9.65;;;3.20;99.90;;;;;;5117438;28;20085;-72
2023/01/22 00:18:13;;;;;;;20.60;10.48;;;3.20;99.90;;;;;;5116121;28;20043;-72
2023/01/22 00:20:39;;;;;;;20.90;10.13;;;3.10;99.90;;;;;;5117376;28;20036;-72
2023/01/22 00:23:05;;;;;;;26.15;11.05;;;3.00;99.90;;;;;;5117076;28;20036;-72
2023/01/22 00:25:31;;;;;;;21.83;9.88;;;3.00;99.90;;;;;;5117320;28;20365;-72
2023/01/22 00:27:56;;;;;;;21.00;9.90;;;3.10;99.90;;;;;;5117000;28;20055;-72
2023/01/22 00:30:22;;;;;;;24.08;11.00;;;3.10;99.90;;;;;;5117062;28;20051;-72
2023/01/22 00:32:48;;;;;;;21.02;11.20;;;3.00;99.90;;;;;;5116437;28;20051;-72
2023/01/22 00:35:13;;;;;;;28.63;11.77;;;3.00;99.90;;;;;;5117239;28;20332;-72
2023/01/22 00:37:39;;;;;;;25.05;11.70;;;3.10;99.90;;;;;;5116188;28;20333;-72
2023/01/22 00:40:06;;;;;;;23.70;11.18;;;3.00;99.90;;;;;;5117205;28;20039;-72
2023/01/22 00:42:31;;;;;;;24.15;11.15;;;2.90;99.90;;;;;;5115868;28;20424;-72
2023/01/22 00:44:58;;;;;;;25.15;12.02;;;2.90;99.90;;;;;;5117238;28;20042;-72
2023/01/22 00:47:24;;;;;;;25.40;11.52;;;3.10;99.90;;;;;;5116998;28;20047;-72
2023/01/22 00:49:50;;;;;;;24.10;11.65;;;3.10;99.90;;;;;;5119638;28;20070;-72
2023/01/22 00:52:16;;;;;;;28.20;12.27;;;3.20;99.90;;;;;;5120659;28;20063;-72
2023/01/22 00:54:41;;;;;;;25.80;12.20;;;3.10;99.90;;;;;;5121230;28;20036;-72
2023/01/22 00:57:07;;;;;;;21.88;11.52;;;3.00;99.90;;;;;;5119898;28;20344;-72
2023/01/22 00:59:33;;;;;;;23.65;12.02;;;3.00;99.90;;;;;;5121077;28;20044;-72
2023/01/22 01:01:58;;;;;;;23.38;11.43;;;3.10;99.90;;;;;;5121089;28;20047;-72
2023/01/22 01:04:24;;;;;;;22.50;11.18;;;3.10;99.90;;;;;;5121002;28;20461;-72
2023/01/22 01:06:50;;;;;;;24.90;12.13;;;3.10;99.90;;;;;;5120858;28;20417;-72
2023/01/22 01:09:15;;;;;;;23.30;11.38;;;3.10;99.90;;;;;;5120922;28;20417;-72
2023/01/22 01:11:41;;;;;;;23.30;11.48;;;3.10;99.90;;;;;;5120928;28;20040;-72
2023/01/22 01:14:07;;;;;;;22.13;10.65;;;3.20;99.90;;;;;;5120516;27;20043;-72
2023/01/22 01:16:33;;;;;;;25.33;10.98;;;3.30;99.90;;;;;;5120482;28;20039;-71
2023/01/22 01:19:04;;;;;;;22.40;10.88;;;3.20;99.90;;;;;;5120770;27;20035;-72
2023/01/22 01:21:30;;;;;;;21.90;11.32;;;3.20;99.90;;;;;;5120645;28;20054;-72
2023/01/22 01:23:57;;;;;;;24.48;11.20;;;3.20;99.90;;;;;;5120381;28;20032;-71
2023/01/22 01:26:23;;;;;;;21.73;11.07;;;3.20;99.90;;;;;;5120527;28;20361;-71
2023/01/22 01:28:51;;;;;;;24.42;11.50;;;3.30;99.90;;;;;;5120140;28;20043;-72
2023/01/22 01:31:18;;;;;;;20.75;10.70;;;3.30;99.90;;;;;;5120181;28;20047;-72
2023/01/22 01:33:44;;;;;;;26.35;11.90;;;3.30;99.90;;;;;;5120130;28;20031;-72
2023/01/22 01:36:16;;;;;;;24.75;12.13;;;3.40;99.90;;;;;;5120421;28;20036;-72
2023/01/22 01:38:42;;;;;;;28.15;13.27;;;3.40;99.90;;;;;;5120390;28;20050;-72
2023/01/22 01:41:11;;;;;;;27.50;13.32;;;3.40;99.90;;;;;;5120331;28;20110;-72
2023/01/22 01:43:37;;;;;;;31.15;13.40;;;3.40;99.90;;;;;;5120295;28;20055;-72
2023/01/22 01:46:10;;;;;;;25.60;13.10;;;3.30;99.90;;;;;;5119882;28;20039;-72
2023/01/22 01:48:40;;;;;;;23.23;11.27;;;3.30;99.90;;;;;;5119183;28;20427;-72
2023/01/22 01:51:11;;;;;;;23.20;12.00;;;3.30;99.90;;;;;;5120171;28;20332;-72
2023/01/22 01:53:38;;;;;;;26.88;12.30;;;3.40;99.90;;;;;;5119830;28;20066;-72
2023/01/22 01:56:12;;;;;;;25.77;11.95;;;3.30;99.90;;;;;;5119008;28;20328;-71
2023/01/22 01:58:39;;;;;;;32.85;13.60;;;3.40;99.90;;;;;;5120022;28;20038;-71
2023/01/22 02:01:11;;;;;;;23.30;11.82;;;3.30;99.90;;;;;;5118936;28;20573;-72
2023/01/22 02:03:38;;;;;;;26.10;12.05;;;3.30;99.90;;;;;;5119903;28;20092;-72
2023/01/22 02:06:04;;;;;;;28.05;12.38;;;3.20;99.90;;;;;;5119727;28;20043;-72
2023/01/22 02:08:30;;;;;;;24.23;11.90;;;3.20;99.90;;;;;;5118524;28;20062;-71
2023/01/22 02:10:57;;;;;;;23.98;11.70;;;3.20;99.90;;;;;;5119777;28;20031;-72
2023/01/22 02:13:30;;;;;;;21.83;11.43;;;3.10;99.90;;;;;;5119466;28;20081;-72
2023/01/22 02:15:55;;;;;;;22.45;11.38;;;3.10;99.90;;;;;;5119284;28;20419;-72
2023/01/22 02:18:21;;;;;;;24.48;11.10;;;3.00;99.90;;;;;;5119329;27;20086;-72
2023/01/22 02:20:58;;;;;;;26.38;12.30;;;2.90;99.90;;;;;;5119609;28;20070;-72
2023/01/22 02:23:25;;;;;;;24.08;10.95;;;3.00;99.90;;;;;;5117986;28;20040;-72
2023/01/22 02:25:51;;;;;;;23.02;11.20;;;3.00;99.90;;;;;;5119457;28;20328;-72
2023/01/22 02:28:18;;;;;;;24.73;11.60;;;3.00;99.90;;;;;;5119046;28;20054;-72
2023/01/22 02:30:44;;;;;;;23.13;11.60;;;3.10;99.90;;;;;;5118138;28;20387;-72
2023/01/22 02:33:10;;;;;;;24.10;11.20;;;3.10;99.90;;;;;;5119379;28;20051;-71
2023/01/22 02:35:36;;;;;;;23.50;10.63;;;3.20;99.90;;;;;;5119316;28;20039;-71
2023/01/22 02:38:02;;;;;;;21.10;10.82;;;3.20;99.90;;;;;;5119226;28;20108;-72
2023/01/22 02:40:28;;;;;;;19.95;9.98;;;3.20;99.90;;;;;;5119176;28;20051;-72
2023/01/22 02:42:55;;;;;;;20.20;10.02;;;3.10;99.90;;;;;;5118883;28;20050;-71
2023/01/22 02:45:22;;;;;;;19.25;9.48;;;3.10;99.90;;;;;;5119063;28;20047;-71
2023/01/22 02:47:47;;;;;;;18.65;9.23;;;3.20;99.90;;;;;;5118636;28;20428;-71
2023/01/22 02:50:13;;;;;;;18.98;9.75;;;3.30;99.90;;;;;;5118976;28;20071;-71
2023/01/22 02:52:39;;;;;;;20.50;9.10;;;3.30;99.90;;;;;;5118349;28;20040;-71
2023/01/22 02:55:05;;;;;;;23.23;9.60;;;3.30;99.90;;;;;;5118895;28;20039;-71
2023/01/22 02:57:31;;;;;;;17.95;9.10;;;3.30;99.90;;;;;;5118840;28;20036;-71
2023/01/22 02:59:57;;;;;;;19.85;9.20;;;3.10;99.90;;;;;;5118776;28;20420;-71
2023/01/22 03:02:23;;;;;;;20.63;8.13;;;3.10;99.90;;;;;;5100406;28;20318;-71
2023/01/22 03:04:49;;;;;;;16.73;7.93;;;3.10;99.90;;;;;;5118703;28;20352;-71
2023/01/22 03:07:16;;;;;;;14.10;6.95;;;3.10;99.90;;;;;;5118234;28;20047;-71
2023/01/22 03:09:42;;;;;;;13.65;6.82;;;3.10;99.90;;;;;;5118606;28;20114;-72
2023/01/22 03:12:08;;;;;;;14.23;7.00;;;3.10;99.90;;;;;;5117764;28;20039;-72
2023/01/22 03:22:47;;;;;;;11.60;6.00;;;3.10;99.90;;;;;;5118124;28;20046;-71
2023/01/22 03:25:13;;;;;;;14.07;6.53;;;3.10;99.90;;;;;;5118301;28;20039;-71
2023/01/22 03:28:07;;;;;;;12.77;5.85;;;3.20;99.90;;;;;;5118050;28;20036;-71
2023/01/22 03:30:24;;;;;;;11.95;5.70;;;3.30;99.90;;;;;;5117853;28;20047;-71
2023/01/22 03:32:50;;;;;;;12.43;5.93;;;3.30;99.90;;;;;;5118146;28;20119;-72
2023/01/22 03:35:16;;;;;;;11.63;5.95;;;3.30;99.90;;;;;;5117984;28;20039;-71
2023/01/22 03:37:41;;;;;;;10.35;4.75;;;3.30;99.90;;;;;;5100032;28;20047;-72
2023/01/22 03:40:08;;;;;;;9.02;4.95;;;3.30;99.90;;;;;;5116735;28;20039;-71
2023/01/22 03:42:34;;;;;;;9.63;5.45;;;3.30;99.90;;;;;;5116529;28;20489;-72
2023/01/22 03:44:59;;;;;;;11.80;5.28;;;3.30;99.90;;;;;;5117900;28;20047;-71
2023/01/22 03:47:25;;;;;;;9.98;5.05;;;3.30;99.90;;;;;;5117826;28;20438;-71
2023/01/22 03:49:51;;;;;;;13.13;5.25;;;3.20;99.90;;;;;;5117669;28;20310;-71
2023/01/22 03:52:16;;;;;;;11.93;5.07;;;3.20;99.90;;;;;;5117084;28;20035;-72
2023/01/22 03:54:42;;;;;;;10.50;5.10;;;3.20;99.90;;;;;;5117337;28;20043;-71
2023/01/22 03:57:08;;;;;;;8.48;4.60;;;3.10;99.90;;;;;;5117510;28;20048;-71
2023/01/22 03:59:33;;;;;;;8.45;4.20;;;3.20;99.90;;;;;;5117472;28;20040;-72
2023/01/22 04:01:59;;;;;;;9.43;4.68;;;3.20;99.90;;;;;;5117398;28;20040;-72
2023/01/22 04:04:25;;;;;;;8.90;4.68;;;3.30;99.90;;;;;;5117643;28;20038;-71
2023/01/22 04:06:50;;;;;;;8.30;4.63;;;3.30;99.90;;;;;;5116357;28;20036;-72
2023/01/22 04:09:16;;;;;;;10.65;4.65;;;3.30;99.90;;;;;;5117563;28;20039;-71
2023/01/22 04:11:42;;;;;;;10.68;4.50;;;3.40;99.90;;;;;;5117543;28;20408;-71
2023/01/22 04:14:07;;;;;;;12.50;5.10;;;3.50;99.90;;;;;;5117501;28;20085;-72
2023/01/22 04:16:33;;;;;;;9.52;4.90;;;3.60;99.90;;;;;;5117446;28;20039;-71
2023/01/22 04:18:59;;;;;;;9.95;4.72;;;3.50;99.90;;;;;;5117405;28;20036;-71
2023/01/22 04:21:24;;;;;;;10.23;5.13;;;3.40;99.90;;;;;;5117369;28;20074;-72
2023/01/22 04:23:50;;;;;;;14.55;4.85;;;3.40;99.90;;;;;;5115486;28;20382;-71
2023/01/22 04:26:16;;;;;;;8.23;4.90;;;3.40;99.90;;;;;;5115926;28;20402;-72
2023/01/22 04:28:41;;;;;;;13.18;5.32;;;3.50;99.90;;;;;;5116965;28;20083;-71
2023/01/22 04:31:08;;;;;;;12.57;4.30;;;3.50;99.90;;;;;;5117064;28;20040;-71
2023/01/22 04:33:34;;;;;;;11.70;5.00;;;3.50;99.90;;;;;;5117280;28;20043;-72
2023/01/22 04:36:01;;;;;;;11.05;5.10;;;3.60;99.90;;;;;;5115930;28;20039;-72
2023/01/22 04:38:26;;;;;;;14.63;5.25;;;3.60;99.90;;;;;;5117267;28;20043;-72
2023/01/22 04:40:52;;;;;;;11.57;5.57;;;3.60;99.90;;;;;;5116868;28;20040;-72
2023/01/22 04:43:18;;;;;;;9.23;4.93;;;3.60;99.90;;;;;;5117222;28;20032;-71
2023/01/22 04:45:43;;;;;;;9.38;4.78;;;3.50;99.90;;;;;;5117177;28;20035;-71
2023/01/22 04:48:09;;;;;;;13.02;5.20;;;3.50;99.90;;;;;;5117078;28;20036;-72
2023/01/22 04:50:35;;;;;;;8.95;4.88;;;3.50;99.90;;;;;;5116823;28;20092;-71
2023/01/22 04:53:01;;;;;;;10.55;4.93;;;3.50;99.90;;;;;;5116868;28;20044;-71
2023/01/22 04:55:28;;;;;;;8.55;5.13;;;3.40;99.90;;;;;;5117070;28;20036;-71
2023/01/22 04:57:56;;;;;;;12.02;5.47;;;3.40;99.90;;;;;;5116713;28;20130;-71
2023/01/22 05:00:22;;;;;;;10.77;5.57;;;3.40;99.90;;;;;;5116715;28;20432;-71
2023/01/22 05:02:48;;;;;;;8.32;4.45;;;3.40;99.90;;;;;;5116964;28;20079;-71
2023/01/22 05:05:14;;;;;;;7.88;4.78;;;3.40;99.90;;;;;;5117011;28;20063;-71
2023/01/22 05:07:40;;;;;;;10.65;4.80;;;3.50;99.90;;;;;;5116877;28;20036;-71
2023/01/22 05:10:06;;;;;;;9.85;4.68;;;3.60;99.90;;;;;;5116901;28;20100;-71
2023/01/22 05:12:31;;;;;;;13.02;5.05;;;3.60;99.90;;;;;;5116886;28;20046;-71
2023/01/22 05:14:58;;;;;;;12.98;5.85;;;3.30;99.90;;;;;;5116856;28;20040;-71
2023/01/22 05:17:23;;;;;;;15.75;5.72;;;3.40;99.90;;;;;;5116813;28;20093;-71
2023/01/22 05:19:49;;;;;;;9.18;4.90;;;3.40;99.90;;;;;;5116843;28;20039;-71
2023/01/22 05:22:15;;;;;;;17.27;5.15;;;3.50;99.90;;;;;;5116633;28;20444;-71
2023/01/22 05:24:40;;;;;;;10.18;5.07;;;3.50;99.90;;;;;;5116759;28;20043;-71
2023/01/22 05:27:06;;;;;;;10.88;4.78;;;3.40;99.90;;;;;;5116423;28;20044;-71
2023/01/22 05:29:32;;;;;;;9.50;5.18;;;3.20;99.90;;;;;;5116341;28;20097;-71
2023/01/22 05:31:58;;;;;;;15.73;5.20;;;3.10;99.90;;;;;;5115780;28;20036;-71
2023/01/22 05:34:24;;;;;;;14.25;5.25;;;3.10;99.90;;;;;;5116378;28;20443;-71
2023/01/22 05:36:51;;;;;;;9.48;5.03;;;3.20;99.90;;;;;;5118982;28;20048;-71
2023/01/22 05:39:17;;;;;;;14.23;5.28;;;3.20;99.90;;;;;;5120392;28;20075;-71
2023/01/22 05:41:43;;;;;;;9.13;5.03;;;3.20;99.90;;;;;;5120308;28;20385;-71
2023/01/22 05:44:11;;;;;;;10.90;4.82;;;3.10;99.90;;;;;;5101930;28;20043;-71
2023/01/22 05:46:37;;;;;;;10.93;5.40;;;3.20;99.90;;;;;;5119856;28;20421;-71
2023/01/22 05:49:03;;;;;;;8.40;4.60;;;3.10;99.90;;;;;;5120185;28;20047;-70
2023/01/22 05:51:29;;;;;;;9.32;5.40;;;2.90;99.90;;;;;;5120185;28;20347;-71
2023/01/22 05:53:54;;;;;;;13.18;5.72;;;3.00;99.90;;;;;;5119893;28;20038;-71
2023/01/22 05:56:20;;;;;;;12.77;5.60;;;3.00;99.90;;;;;;5120100;28;20076;-71
2023/01/22 05:58:46;;;;;;;8.52;5.30;;;2.90;99.90;;;;;;5119718;28;20043;-71
2023/01/22 06:01:11;;;;;;;11.65;5.28;;;3.00;99.90;;;;;;5119960;28;20046;-71
2023/01/22 06:03:37;;;;;;;8.95;5.43;;;2.90;99.90;;;;;;5119910;28;20067;-71
2023/01/22 06:06:06;;;;;;;9.27;5.43;;;2.90;99.90;;;;;;5118455;28;20047;-71
2023/01/22 06:08:32;;;;;;;11.52;5.35;;;2.80;99.90;;;;;;5119536;28;20032;-71
2023/01/22 06:11:09;;;;;;;12.10;6.10;;;2.80;99.90;;;;;;5119764;28;20042;-71
2023/01/22 06:13:35;;;;;;;11.70;5.78;;;2.80;99.90;;;;;;5118446;28;20115;-71
2023/01/22 06:16:03;;;;;;;9.27;5.43;;;2.70;99.90;;;;;;5119705;28;20071;-71
2023/01/22 06:18:28;;;;;;;9.88;5.30;;;2.70;99.90;;;;;;5119331;28;20429;-71
2023/01/22 06:20:59;;;;;;;11.05;5.78;;;2.90;99.90;;;;;;5119577;28;20089;-71
2023/01/22 06:23:28;;;;;;;10.07;5.38;;;3.00;99.90;;;;;;5117989;28;20075;-71
2023/01/22 06:25:55;;;;;;;8.20;5.15;;;3.00;99.90;;;;;;5118080;28;20043;-71
2023/01/22 06:28:21;;;;;;;13.32;6.00;;;3.00;99.90;;;;;;5118213;28;20138;-71
2023/01/22 06:30:47;;;;;;;10.60;6.03;;;3.00;99.90;;;;;;5119362;28;20035;-71
2023/01/22 06:33:13;;;;;;;10.73;6.32;;;3.00;99.90;;;;;;5119345;28;20036;-70
2023/01/22 06:35:39;;;;;;;11.38;6.15;;;2.90;99.90;;;;;;5119017;28;20089;-71
2023/01/22 06:38:05;;;;;;;11.77;6.68;;;2.90;99.90;;;;;;5119263;28;20043;-71
2023/01/22 06:40:31;;;;;;;10.82;6.28;;;2.80;99.90;;;;;;5119227;28;20050;-71
2023/01/22 06:42:57;;;;;;;10.88;5.68;;;3.00;99.90;;;;;;5118866;28;20031;-71
2023/01/22 06:45:23;;;;;;;10.93;5.82;;;2.90;99.90;;;;;;5119087;28;20074;-71
2023/01/22 06:47:49;;;;;;;12.10;6.65;;;2.90;99.90;;;;;;5118858;28;20040;-71
2023/01/22 06:50:15;;;;;;;10.25;6.30;;;2.90;99.90;;;;;;5118732;28;20043;-71
2023/01/22 06:52:41;;;;;;;13.18;6.97;;;2.90;99.90;;;;;;5118438;28;20077;-71
2023/01/22 06:55:07;;;;;;;13.88;6.43;;;2.90;99.90;;;;;;5118972;28;20032;-71
2023/01/22 06:57:32;;;;;;;11.90;6.63;;;2.90;99.90;;;;;;5119170;28;20337;-71
2023/01/22 06:59:58;;;;;;;12.55;6.03;;;3.00;99.90;;;;;;5118889;28;20064;-71
2023/01/22 07:02:24;;;;;;;11.40;6.30;;;2.90;99.90;;;;;;5118719;28;20108;-71
2023/01/22 07:04:49;;;;;;;13.98;6.65;;;3.10;99.90;;;;;;5118727;28;20043;-71
2023/01/22 07:07:15;;;;;;;13.85;6.13;;;3.20;99.90;;;;;;5117321;28;20093;-71
2023/01/22 07:09:41;;;;;;;14.90;5.72;;;3.40;99.90;;;;;;5117434;28;20085;-71
2023/01/22 07:12:07;;;;;;;12.38;6.72;;;3.50;99.90;;;;;;5118563;28;20043;-71
2023/01/22 07:14:32;;;;;;;12.57;6.60;;;3.40;99.90;;;;;;5118197;28;20043;-71
2023/01/22 07:16:58;;;;;;;10.85;6.35;;;3.40;99.90;;;;;;5118487;28;20057;-71
2023/01/22 07:19:24;;;;;;;12.98;7.30;;;3.30;99.90;;;;;;5117475;28;20412;-71
2023/01/22 07:21:49;;;;;;;11.52;7.15;;;3.20;99.90;;;;;;5118401;28;20122;-71
2023/01/22 07:24:16;;;;;;;12.95;6.38;;;3.00;99.90;;;;;;5118012;28;20043;-71
2023/01/22 07:26:42;;;;;;;12.05;6.50;;;3.00;99.90;;;;;;5117250;28;20036;-71
2023/01/22 07:29:09;;;;;;;11.55;6.90;;;3.10;99.90;;;;;;5117914;28;20070;-71
2023/01/22 07:31:35;;;;;;;10.27;5.78;;;3.30;99.90;;;;;;5117945;28;20039;-71
2023/01/22 07:34:02;;;;;;;10.70;7.18;;;3.30;99.90;;;;;;5118205;28;20100;-71
2023/01/22 07:36:27;;;;;;;12.27;6.63;;;3.30;99.90;;;;;;5117817;28;20433;-71
2023/01/22 07:38:53;;;;;;;13.80;7.15;;;3.30;99.90;;;;;;5118071;28;20042;-71
2023/01/22 07:41:19;;;;;;;13.80;7.45;;;3.40;99.90;;;;;;5118055;28;20116;-71
2023/01/22 07:43:45;;;;;;;15.88;7.20;;;3.30;99.90;;;;;;5117280;28;20043;-71
2023/01/22 07:46:10;;;;;;;13.40;7.28;;;3.30;99.90;;;;;;5117570;28;20044;-71
2023/01/22 07:48:37;;;;;;;11.15;6.95;;;3.20;99.90;;;;;;5117561;28;20084;-71
2023/01/22 07:51:04;;;;;;;12.73;8.10;;;3.20;99.90;;;;;;5116545;28;20043;-71
2023/01/22 07:53:31;;;;;;;14.13;8.02;;;3.20;99.90;;;;;;5117511;28;20039;-71
2023/01/22 07:55:57;;;;;;;16.50;7.80;;;3.40;99.90;;;;;;5117986;28;20039;-71
2023/01/22 07:58:22;;;;;;;13.55;7.10;;;3.30;99.90;;;;;;5117169;28;20058;-71
2023/01/22 08:00:48;;;;;;;16.10;7.95;;;3.20;99.90;;;;;;5117902;28;20047;-71
2023/01/22 08:03:14;;;;;;;12.93;7.93;;;3.20;99.90;;;;;;5116849;28;20164;-71
2023/01/22 08:05:41;;;;;;;12.70;7.75;;;3.10;99.90;;;;;;5117651;28;20043;-71
2023/01/22 08:08:16;;;;;;;15.07;8.40;;;3.30;99.90;;;;;;5117488;28;20113;-71
2023/01/22 08:10:42;;;;;;;13.68;8.65;;;3.40;99.90;;;;;;5117617;28;20051;-71
2023/01/22 08:13:08;;;;;;;13.93;8.40;;;3.40;99.90;;;;;;5117542;28;20317;-71
2023/01/22 08:15:33;;;;;;;15.77;9.15;;;3.40;99.90;;;;;;5117181;28;20080;-71
2023/01/22 08:17:59;;;;;;;14.35;7.82;;;3.30;99.90;;;;;;5099239;28;20051;-71
2023/01/22 08:20:25;;;;;;;16.02;7.53;;;3.00;99.90;;;;;;5117392;28;20035;-71
2023/01/22 08:22:56;;;;;;;12.00;7.47;;;3.10;99.90;;;;;;5117155;28;20447;-71
2023/01/22 08:25:21;;;;;;;12.70;6.97;;;3.10;99.90;;;;;;5117409;28;20035;-70
2023/01/22 08:27:47;;;;;;;16.33;8.25;;;3.10;99.90;;;;;;5117054;28;20036;-71
2023/01/22 08:30:14;;;;;;;13.60;7.78;;;3.10;99.90;;;;;;5117196;28;20084;-71
2023/01/22 08:32:40;;;;;;;14.23;8.18;;;3.00;99.90;;;;;;5117172;28;20040;-71
2023/01/22 08:35:07;;;;;;;16.35;7.75;;;3.10;99.90;;;;;;5116495;28;20035;-71
2023/01/22 08:37:33;;;;;;;12.40;7.45;;;3.10;99.90;;;;;;5115800;28;20043;-74
2023/01/22 08:39:59;;;;;;;11.93;7.68;;;3.10;99.90;;;;;;5116637;28;20042;-71
2023/01/22 08:42:24;;;;;;;14.10;6.82;;;3.20;99.90;;;;;;5117222;28;20044;-71
2023/01/22 08:44:50;;;;;;;13.77;6.63;;;3.20;99.90;;;;;;5117149;28;20039;-71
2023/01/22 08:47:16;;;;;;;11.75;6.82;;;3.10;99.90;;;;;;5117079;28;20123;-71
2023/01/22 08:49:41;;;;;;;15.75;7.47;;;2.90;99.90;;;;;;5132890;28;20054;-71
2023/01/22 08:52:07;;;;;;;15.23;6.93;;;2.90;99.90;;;;;;5115969;28;20036;-76
2023/01/22 08:54:33;;;;;;;11.38;6.13;;;2.80;99.90;;;;;;5115437;28;20046;-67
2023/01/22 08:56:58;;;;;;;13.80;7.20;;;2.80;99.90;;;;;;5117095;28;20036;-68
2023/01/22 08:59:24;;;;;;;12.43;6.85;;;2.80;99.90;;;;;;5117042;28;20421;-68
2023/01/22 09:01:50;;;;;;;11.32;6.05;;;2.90;99.90;;;;;;5116664;28;20144;-69
2023/01/22 09:04:15;;;;;;;12.73;6.15;;;2.90;99.90;;;;;;5115990;28;20043;-69
2023/01/22 09:06:41;;;;;;;17.73;7.63;;;3.00;99.90;;;;;;5116601;28;20043;-69
2023/01/22 09:09:07;;;;;;;15.55;6.78;;;3.00;99.90;;;;;;5116982;28;20035;-69
2023/01/22 09:11:33;;;;;;;15.02;7.53;;;3.10;99.90;;;;;;5117740;28;20040;-69
2023/01/22 09:13:59;;;;;;;14.98;6.75;;;3.20;99.90;;;;;;5120875;28;20035;-70
2023/01/22 09:16:26;;;;;;;10.73;5.53;;;3.20;99.90;;;;;;5120340;28;20058;-71
2023/01/22 09:18:52;;;;;;;9.82;6.20;;;3.20;99.90;;;;;;5120552;28;20424;-69
2023/01/22 09:21:18;;;;;;;15.38;6.32;;;3.10;99.90;;;;;;5111978;28;20028;-70
2023/01/22 09:23:43;;;;;;;8.88;6.50;;;3.10;99.90;;;;;;5108316;28;20036;-70
2023/01/22 09:26:10;;;;;;;10.45;6.30;;;3.00;99.90;;;;;;5119315;28;20428;-70
2023/01/22 09:28:36;;;;;;;12.05;6.97;;;3.10;99.90;;;;;;5104965;28;20089;-71
2023/01/22 09:31:02;;;;;;;12.90;6.13;;;3.30;99.90;;;;;;5099804;28;20448;-69
2023/01/22 09:33:28;;;;;;;10.38;5.65;;;3.00;99.90;;;;;;5100031;28;20294;-70
2023/01/22 09:35:54;;;;;;;11.00;6.00;;;3.00;99.90;;;;;;5099379;28;20119;-70
2023/01/22 09:38:19;;;;;;;13.27;6.10;;;3.10;99.90;;;;;;5099710;28;20067;-70
2023/01/22 09:40:50;;;;;;;11.20;6.13;;;3.10;99.90;;;;;;5098689;28;20035;-70
2023/01/22 09:43:18;;;;;;;11.05;5.93;;;3.20;99.90;;;;;;5099960;28;20062;-69
2023/01/22 09:45:45;;;;;;;15.15;6.40;;;3.20;99.90;;;;;;5099868;28;20089;-68
2023/01/22 09:48:15;;;;;;;12.13;5.60;;;3.10;99.90;;;;;;5099410;28;20036;-69
2023/01/22 09:50:42;;;;;;;11.73;6.13;;;3.10;99.90;;;;;;5099802;28;20125;-69
2023/01/22 09:53:13;;;;;;;16.13;6.65;;;3.30;99.90;;;;;;5098016;28;20040;-69
2023/01/22 09:55:52;;;;;;;13.35;6.90;;;3.40;99.90;;;;;;5104624;28;20058;-70
2023/01/22 09:58:21;;;;;;;13.65;6.75;;;3.50;99.90;;;;;;5099883;28;20059;-70
2023/01/22 10:00:52;;;;;;;12.13;6.43;;;3.50;99.90;;;;;;5099115;28;20356;-70
2023/01/22 10:03:27;;;;;;;11.90;6.32;;;3.50;99.90;;;;;;5099103;28;20421;-70
2023/01/22 10:06:01;;;;;;;11.70;6.82;;;3.50;99.90;;;;;;5107709;28;20077;-70
2023/01/22 10:08:57;;;;;;;10.77;6.65;;;3.50;99.90;;;;;;5103198;28;20121;-70
2023/01/22 10:11:23;;;;;;;9.55;6.32;;;3.50;99.90;;;;;;5100594;28;20039;-70
2023/01/22 10:13:54;;;;;;;10.48;6.55;;;3.50;99.90;;;;;;5118761;28;20036;-70
2023/01/22 10:16:20;;;;;;;10.85;6.60;;;3.60;99.90;;;;;;5119228;28;20092;-70
2023/01/22 10:18:58;;;;;;;11.20;6.35;;;3.70;99.90;;;;;;5119355;28;20036;-70
2023/01/22 10:21:26;;;;;;;10.82;6.60;;;3.80;99.90;;;;;;5103796;28;20076;-70
2023/01/22 10:23:55;;;;;;;13.10;7.28;;;3.90;99.90;;;;;;5097866;28;20140;-68
2023/01/22 10:26:42;;;;;;;11.73;6.57;;;4.00;99.90;;;;;;5102190;28;20039;-75
2023/01/22 10:29:09;;;;;;;;;;;3.90;99.90;;;;;;5105058;28;20043;-68
2023/01/22 10:31:39;;;;;;;12.77;6.70;;;4.00;99.90;;;;;;5119135;28;19915;-68
2023/01/22 10:34:30;;;;;;;12.90;7.03;;;3.90;99.90;;;;;;5104867;28;20032;-70
2023/01/22 10:37:00;;;;;;;14.52;7.40;;;4.00;99.90;;;;;;5099305;28;20040;-69
2023/01/22 10:39:26;;;;;;;14.73;7.50;;;3.90;99.90;;;;;;5098685;28;20043;-69
2023/01/22 10:42:00;;;;;;;13.52;7.07;;;3.80;99.90;;;;;;5098229;28;20036;-68
2023/01/22 10:44:26;;;;;;;9.85;5.90;;;3.90;99.90;;;;;;5098511;28;20032;-69
2023/01/22 10:46:54;;;;;;;12.05;6.50;;;3.90;99.90;;;;;;5114187;28;20510;-70
2023/01/22 10:49:25;;;;;;;15.25;7.07;;;4.10;99.90;;;;;;5098199;28;20044;-70
2023/01/22 10:51:56;;;;;;;12.75;7.00;;;4.10;99.90;;;;;;5097214;28;20032;-69
2023/01/22 10:54:34;;;;;;;15.05;7.68;;;4.30;99.90;;;;;;5098455;28;20040;-69
2023/01/22 10:57:04;;;;;;;10.07;6.20;;;4.10;99.90;;;;;;5098348;28;20044;-69
2023/01/22 10:59:30;;;;;;;15.93;8.02;;;4.00;99.90;;;;;;5098093;28;20089;-69
2023/01/22 11:02:01;;;;;;;10.82;7.35;;;4.10;99.90;;;;;;5097299;28;20068;-70
2023/01/22 11:04:32;;;;;;;11.90;7.00;;;4.00;99.90;;;;;;5097806;28;20115;-70
2023/01/22 11:07:19;;;;;;;14.82;7.70;;;4.00;99.90;;;;;;5098069;28;20036;-69
2023/01/22 11:09:59;;;;;;;17.83;7.60;;;4.00;99.90;;;;;;5097822;28;20421;-70
2023/01/22 11:12:51;;;;;;;14.00;7.30;;;4.00;99.90;;;;;;5097136;28;20117;-69
2023/01/22 11:15:33;;;;;;;12.43;6.90;;;4.10;99.90;;;;;;5104725;28;20052;-72
2023/01/22 11:18:00;;;;;;;10.52;7.18;;;4.00;99.90;;;;;;5114161;28;20039;-70
2023/01/22 11:20:56;;;;;;;13.82;7.65;;;4.10;99.90;;;;;;5115663;28;20372;-72
2023/01/22 11:23:47;;;;;;;12.15;6.40;;;4.10;99.90;;;;;;5117123;28;20039;-70
2023/01/22 11:26:28;;;;;;;12.38;7.05;;;4.20;99.90;;;;;;5118210;28;20047;-69
2023/01/22 11:29:31;;;;;;;14.40;6.95;;;4.00;99.90;;;;;;5117958;28;20066;-70
2023/01/22 11:32:22;;;;;;;11.23;7.05;;;4.10;99.90;;;;;;5117985;28;20044;-69
2023/01/22 11:35:05;;;;;;;12.60;6.65;;;4.30;99.90;;;;;;5117040;28;20051;-69
2023/01/22 11:37:59;;;;;;;18.70;7.72;;;4.40;99.90;;;;;;5117965;28;20043;-69
2023/01/22 11:40:29;;;;;;;14.27;6.90;;;4.50;99.90;;;;;;5117826;28;20036;-69
2023/01/22 11:43:12;;;;;;;12.70;7.40;;;4.60;99.90;;;;;;5117997;28;20040;-69
2023/01/22 11:45:58;;;;;;;13.35;7.57;;;4.60;99.90;;;;;;5118006;28;20302;-69
2023/01/22 11:48:51;;;;;;;13.80;7.35;;;4.60;99.90;;;;;;5117903;28;20122;-71
2023/01/22 11:51:25;;;;;;;13.90;7.32;;;4.60;99.90;;;;;;5099611;28;20050;-69
2023/01/22 11:54:37;;;;;;;14.82;7.40;;;4.50;99.90;;;;;;5117440;28;20039;-69
2023/01/22 11:57:03;;;;;;;15.90;6.78;;;4.40;99.90;;;;;;5107637;28;20051;-69
2023/01/22 11:59:56;;;;;;;10.25;7.13;;;4.20;99.90;;;;;;5117707;28;20036;-69
2023/01/22 12:02:42;;;;;;;13.23;6.55;;;4.30;99.90;;;;;;5117362;28;20436;-70
2023/01/22 12:05:32;;;;;;;11.60;6.53;;;4.50;99.90;;;;;;5117417;28;20451;-69
2023/01/22 12:08:04;;;;;;;15.55;7.00;;;4.60;99.90;;;;;;5117246;28;20096;-70
2023/01/22 12:10:54;;;;;;;11.93;6.32;;;4.60;99.90;;;;;;5100806;28;20038;-71
2023/01/22 12:13:28;;;;;;;13.35;6.63;;;4.70;99.90;;;;;;5112931;28;20325;-70
2023/01/22 12:16:20;;;;;;;11.27;6.95;;;4.70;99.90;;;;;;5111534;28;20085;-71
2023/01/22 12:18:51;;;;;;;11.82;7.00;;;4.80;99.90;;;;;;5113615;28;20050;-72
2023/01/22 12:21:34;;;;;;;10.18;6.05;;;5.00;99.90;;;;;;5116008;28;20436;-69
2023/01/22 12:24:24;;;;;;;9.00;5.93;;;5.00;99.90;;;;;;5115897;28;20513;-70
2023/01/22 12:27:14;;;;;;;14.82;6.72;;;5.00;99.90;;;;;;5117338;28;20138;-69
2023/01/22 12:29:59;;;;;;;11.88;6.60;;;5.00;99.90;;;;;;5113531;28;20055;-69
2023/01/22 12:32:27;;;;;;;12.05;6.50;;;4.80;99.90;;;;;;5117313;28;20046;-70
2023/01/22 12:35:05;;;;;;;12.25;7.00;;;4.70;99.90;;;;;;5117275;28;20047;-69
2023/01/22 12:37:45;;;;;;;14.23;6.75;;;4.70;99.90;;;;;;5117653;28;20043;-70
2023/01/22 12:40:51;;;;;;;11.55;6.75;;;4.70;99.90;;;;;;5117269;28;20119;-69
2023/01/22 12:43:21;;;;;;;10.45;6.45;;;4.70;99.90;;;;;;5117221;28;20381;-69
2023/01/22 12:46:02;;;;;;;12.20;7.10;;;4.70;99.90;;;;;;5119720;28;20075;-69
2023/01/22 12:48:54;;;;;;;14.18;7.10;;;4.70;99.90;;;;;;5121487;27;20048;-68
2023/01/22 12:51:44;;;;;;;11.63;6.15;;;4.80;99.90;;;;;;5121403;28;20046;-70
2023/01/22 12:54:24;;;;;;;11.80;6.97;;;4.70;99.90;;;;;;5121031;28;20027;-70
2023/01/22 12:56:55;;;;;;;13.57;7.15;;;4.70;99.90;;;;;;5120980;28;20451;-68
2023/01/22 12:59:35;;;;;;;10.95;6.75;;;4.80;99.90;;;;;;5121326;28;20051;-70
2023/01/22 13:02:04;;;;;;;14.18;6.47;;;4.70;99.90;;;;;;5121258;28;20432;-70
2023/01/22 13:04:31;;;;;;;12.05;6.88;;;4.50;99.90;;;;;;5121144;28;20054;-70